sensor_id;sensor_type;location;lat;lon;timestamp;P1;durP1;ratioP1;P2;durP2;ratioP2
42840;SDS011;28491;46.898;7.660;2023-04-25T00:01:14;5.45;;;2.45;;
42840;SDS011;28491;46.898;7.660;2023-04-25T00:03:39;3.90;;;2.15;;
42840;SDS011;28491;46.898;7.660;2023-04-25T00:06:06;4.28;;;2.58;;
42840;SDS011;28491;46.898;7.660;2023-04-25T00:08:31;5.22;;;1.92;;
42840;SDS011;28491;46.898;7.660;2023-04-25T00:10:57;8.13;;;2.70;;
42840;SDS011;28491;46.898;7.660;2023-04-25T00:13:23;9.57;;;2.40;;
42840;SDS011;28491;46.898;7.660;2023-04-25T00:15:50;3.95;;;2.08;;
42840;SDS011;28491;46.898;7.660;2023-04-25T00:18:16;4.38;;;2.20;;
42840;SDS011;28491;46.898;7.660;2023-04-25T00:20:42;7.40;;;2.65;;
42840;SDS011;28491;46.898;7.660;2023-04-25T00:23:11;5.10;;;2.33;;
42840;SDS011;28491;46.898;7.660;2023-04-25T00:25:37;5.10;;;2.13;;
42840;SDS011;28491;46.898;7.660;2023-04-25T00:28:03;10.00;;;3.13;;
42840;SDS011;28491;46.898;7.660;2023-04-25T00:30:28;4.35;;;2.60;;
42840;SDS011;28491;46.898;7.660;2023-04-25T00:32:54;5.53;;;2.60;;
42840;SDS011;28491;46.898;7.660;2023-04-25T00:35:20;5.13;;;2.40;;
42840;SDS011;28491;46.898;7.660;2023-04-25T00:37:46;7.07;;;2.45;;
42840;SDS011;28491;46.898;7.660;2023-04-25T00:40:11;8.75;;;2.13;;
42840;SDS011;28491;46.898;7.660;2023-04-25T00:42:37;8.57;;;2.42;;
42840;SDS011;28491;46.898;7.660;2023-04-25T00:45:04;6.00;;;2.67;;
42840;SDS011;28491;46.898;7.660;2023-04-25T00:47:31;3.97;;;2.25;;
42840;SDS011;28491;46.898;7.660;2023-04-25T00:49:57;9.23;;;2.65;;
42840;SDS011;28491;46.898;7.660;2023-04-25T00:52:23;6.03;;;2.38;;
42840;SDS011;28491;46.898;7.660;2023-04-25T00:54:49;7.53;;;2.78;;
42840;SDS011;28491;46.898;7.660;2023-04-25T00:57:15;7.57;;;2.60;;
42840;SDS011;28491;46.898;7.660;2023-04-25T00:59:41;9.40;;;2.78;;
42840;SDS011;28491;46.898;7.660;2023-04-25T01:02:11;5.57;;;2.30;;
42840;SDS011;28491;46.898;7.660;2023-04-25T01:04:37;6.07;;;2.60;;
42840;SDS011;28491;46.898;7.660;2023-04-25T01:07:03;6.63;;;2.45;;
42840;SDS011;28491;46.898;7.660;2023-04-25T01:09:30;4.13;;;2.30;;
42840;SDS011;28491;46.898;7.660;2023-04-25T01:11:56;10.00;;;2.50;;
42840;SDS011;28491;46.898;7.660;2023-04-25T01:14:22;5.70;;;2.35;;
42840;SDS011;28491;46.898;7.660;2023-04-25T01:16:48;8.48;;;2.42;;
42840;SDS011;28491;46.898;7.660;2023-04-25T01:19:13;8.00;;;3.08;;
42840;SDS011;28491;46.898;7.660;2023-04-25T01:24:08;6.15;;;2.45;;
42840;SDS011;28491;46.898;7.660;2023-04-25T01:26:35;7.32;;;2.35;;
42840;SDS011;28491;46.898;7.660;2023-04-25T01:29:01;5.80;;;3.05;;
42840;SDS011;28491;46.898;7.660;2023-04-25T01:31:28;6.07;;;3.00;;
42840;SDS011;28491;46.898;7.660;2023-04-25T01:33:55;6.57;;;2.38;;
42840;SDS011;28491;46.898;7.660;2023-04-25T01:36:20;7.25;;;2.72;;
42840;SDS011;28491;46.898;7.660;2023-04-25T01:38:47;5.38;;;2.50;;
42840;SDS011;28491;46.898;7.660;2023-04-25T01:41:13;7.30;;;2.63;;
42840;SDS011;28491;46.898;7.660;2023-04-25T01:43:39;5.97;;;2.92;;
42840;SDS011;28491;46.898;7.660;2023-04-25T01:46:05;4.90;;;2.90;;
42840;SDS011;28491;46.898;7.660;2023-04-25T01:48:31;6.43;;;2.85;;
42840;SDS011;28491;46.898;7.660;2023-04-25T01:50:56;9.27;;;3.95;;
42840;SDS011;28491;46.898;7.660;2023-04-25T01:53:22;6.15;;;3.13;;
42840;SDS011;28491;46.898;7.660;2023-04-25T01:55:49;5.43;;;3.25;;
42840;SDS011;28491;46.898;7.660;2023-04-25T01:58:14;8.10;;;2.72;;
42840;SDS011;28491;46.898;7.660;2023-04-25T02:00:40;4.43;;;2.95;;
42840;SDS011;28491;46.898;7.660;2023-04-25T02:03:05;8.70;;;2.83;;
42840;SDS011;28491;46.898;7.660;2023-04-25T02:05:35;9.48;;;3.70;;
42840;SDS011;28491;46.898;7.660;2023-04-25T02:08:01;12.82;;;3.88;;
42840;SDS011;28491;46.898;7.660;2023-04-25T02:10:27;5.20;;;2.63;;
42840;SDS011;28491;46.898;7.660;2023-04-25T02:12:53;4.53;;;2.63;;
42840;SDS011;28491;46.898;7.660;2023-04-25T02:15:18;6.90;;;3.42;;
42840;SDS011;28491;46.898;7.660;2023-04-25T02:17:44;10.57;;;3.85;;
42840;SDS011;28491;46.898;7.660;2023-04-25T02:20:10;12.00;;;2.45;;
42840;SDS011;28491;46.898;7.660;2023-04-25T02:22:36;6.82;;;2.80;;
42840;SDS011;28491;46.898;7.660;2023-04-25T02:25:02;6.38;;;2.58;;
42840;SDS011;28491;46.898;7.660;2023-04-25T02:27:29;7.10;;;4.13;;
42840;SDS011;28491;46.898;7.660;2023-04-25T02:29:55;4.68;;;2.92;;
42840;SDS011;28491;46.898;7.660;2023-04-25T02:32:20;5.28;;;2.83;;
42840;SDS011;28491;46.898;7.660;2023-04-25T02:34:46;6.80;;;2.47;;
42840;SDS011;28491;46.898;7.660;2023-04-25T02:37:12;6.15;;;2.28;;
42840;SDS011;28491;46.898;7.660;2023-04-25T02:39:38;3.80;;;2.08;;
42840;SDS011;28491;46.898;7.660;2023-04-25T02:42:04;10.23;;;3.10;;
42840;SDS011;28491;46.898;7.660;2023-04-25T02:44:29;3.20;;;2.40;;
42840;SDS011;28491;46.898;7.660;2023-04-25T02:46:55;10.98;;;3.45;;
42840;SDS011;28491;46.898;7.660;2023-04-25T02:49:20;3.35;;;2.10;;
42840;SDS011;28491;46.898;7.660;2023-04-25T02:51:46;4.55;;;2.40;;
42840;SDS011;28491;46.898;7.660;2023-04-25T02:54:11;4.55;;;2.42;;
42840;SDS011;28491;46.898;7.660;2023-04-25T02:56:37;6.93;;;2.47;;
42840;SDS011;28491;46.898;7.660;2023-04-25T02:59:02;4.80;;;2.90;;
42840;SDS011;28491;46.898;7.660;2023-04-25T03:01:28;7.18;;;2.15;;
42840;SDS011;28491;46.898;7.660;2023-04-25T03:03:53;4.55;;;2.25;;
42840;SDS011;28491;46.898;7.660;2023-04-25T03:06:19;4.80;;;2.30;;
42840;SDS011;28491;46.898;7.660;2023-04-25T03:08:44;5.43;;;2.35;;
42840;SDS011;28491;46.898;7.660;2023-04-25T03:11:10;5.03;;;2.35;;
42840;SDS011;28491;46.898;7.660;2023-04-25T03:13:35;6.55;;;2.83;;
42840;SDS011;28491;46.898;7.660;2023-04-25T03:16:01;4.07;;;2.20;;
42840;SDS011;28491;46.898;7.660;2023-04-25T03:18:26;5.25;;;2.22;;
42840;SDS011;28491;46.898;7.660;2023-04-25T03:20:52;4.97;;;2.55;;
42840;SDS011;28491;46.898;7.660;2023-04-25T03:23:17;5.53;;;2.65;;
42840;SDS011;28491;46.898;7.660;2023-04-25T03:25:43;6.07;;;2.22;;
42840;SDS011;28491;46.898;7.660;2023-04-25T03:28:09;3.17;;;2.20;;
42840;SDS011;28491;46.898;7.660;2023-04-25T03:30:34;5.43;;;2.15;;
42840;SDS011;28491;46.898;7.660;2023-04-25T03:33:00;5.82;;;2.38;;
42840;SDS011;28491;46.898;7.660;2023-04-25T03:35:25;5.10;;;2.08;;
42840;SDS011;28491;46.898;7.660;2023-04-25T03:37:51;3.83;;;1.70;;
42840;SDS011;28491;46.898;7.660;2023-04-25T03:40:16;8.88;;;2.20;;
42840;SDS011;28491;46.898;7.660;2023-04-25T03:42:42;5.80;;;1.63;;
42840;SDS011;28491;46.898;7.660;2023-04-25T03:45:07;6.47;;;2.90;;
42840;SDS011;28491;46.898;7.660;2023-04-25T03:47:33;3.50;;;2.10;;
42840;SDS011;28491;46.898;7.660;2023-04-25T03:49:58;5.97;;;2.30;;
42840;SDS011;28491;46.898;7.660;2023-04-25T03:52:26;7.35;;;2.60;;
42840;SDS011;28491;46.898;7.660;2023-04-25T03:54:52;6.03;;;2.92;;
42840;SDS011;28491;46.898;7.660;2023-04-25T03:57:17;11.40;;;4.03;;
42840;SDS011;28491;46.898;7.660;2023-04-25T03:59:43;6.65;;;3.28;;
42840;SDS011;28491;46.898;7.660;2023-04-25T04:02:09;6.00;;;3.47;;
42840;SDS011;28491;46.898;7.660;2023-04-25T04:04:34;4.45;;;2.75;;
42840;SDS011;28491;46.898;7.660;2023-04-25T04:07:00;5.18;;;2.90;;
42840;SDS011;28491;46.898;7.660;2023-04-25T04:09:26;8.00;;;2.95;;
42840;SDS011;28491;46.898;7.660;2023-04-25T04:11:52;4.35;;;2.95;;
42840;SDS011;28491;46.898;7.660;2023-04-25T04:14:18;5.30;;;2.63;;
42840;SDS011;28491;46.898;7.660;2023-04-25T04:16:43;9.32;;;2.95;;
42840;SDS011;28491;46.898;7.660;2023-04-25T04:19:09;4.07;;;2.50;;
42840;SDS011;28491;46.898;7.660;2023-04-25T04:21:35;2.75;;;2.25;;
42840;SDS011;28491;46.898;7.660;2023-04-25T04:24:01;3.35;;;2.30;;
42840;SDS011;28491;46.898;7.660;2023-04-25T04:26:26;6.40;;;2.35;;
42840;SDS011;28491;46.898;7.660;2023-04-25T04:28:52;6.88;;;2.15;;
42840;SDS011;28491;46.898;7.660;2023-04-25T04:31:19;8.07;;;5.15;;
42840;SDS011;28491;46.898;7.660;2023-04-25T04:33:46;14.43;;;8.65;;
42840;SDS011;28491;46.898;7.660;2023-04-25T04:36:12;8.55;;;2.72;;
42840;SDS011;28491;46.898;7.660;2023-04-25T04:38:37;5.05;;;2.25;;
42840;SDS011;28491;46.898;7.660;2023-04-25T04:41:03;6.43;;;2.67;;
42840;SDS011;28491;46.898;7.660;2023-04-25T04:43:29;3.45;;;2.40;;
42840;SDS011;28491;46.898;7.660;2023-04-25T04:45:55;8.68;;;4.13;;
42840;SDS011;28491;46.898;7.660;2023-04-25T04:48:23;6.00;;;2.60;;
42840;SDS011;28491;46.898;7.660;2023-04-25T04:50:49;5.13;;;2.65;;
42840;SDS011;28491;46.898;7.660;2023-04-25T04:53:15;12.20;;;4.53;;
42840;SDS011;28491;46.898;7.660;2023-04-25T04:55:40;6.53;;;3.75;;
42840;SDS011;28491;46.898;7.660;2023-04-25T04:58:06;8.15;;;2.92;;
42840;SDS011;28491;46.898;7.660;2023-04-25T05:00:32;8.57;;;2.95;;
42840;SDS011;28491;46.898;7.660;2023-04-25T05:02:58;10.02;;;3.42;;
42840;SDS011;28491;46.898;7.660;2023-04-25T05:05:23;4.80;;;2.90;;
42840;SDS011;28491;46.898;7.660;2023-04-25T05:07:49;4.97;;;2.72;;
42840;SDS011;28491;46.898;7.660;2023-04-25T05:10:16;6.97;;;2.83;;
42840;SDS011;28491;46.898;7.660;2023-04-25T05:12:42;13.68;;;3.70;;
42840;SDS011;28491;46.898;7.660;2023-04-25T05:15:08;9.10;;;3.63;;
42840;SDS011;28491;46.898;7.660;2023-04-25T05:17:33;6.88;;;2.97;;
42840;SDS011;28491;46.898;7.660;2023-04-25T05:19:59;4.55;;;2.70;;
42840;SDS011;28491;46.898;7.660;2023-04-25T05:22:25;5.15;;;3.63;;
42840;SDS011;28491;46.898;7.660;2023-04-25T05:24:51;17.13;;;3.60;;
42840;SDS011;28491;46.898;7.660;2023-04-25T05:27:17;6.00;;;3.35;;
42840;SDS011;28491;46.898;7.660;2023-04-25T05:29:43;8.00;;;2.95;;
42840;SDS011;28491;46.898;7.660;2023-04-25T05:32:08;7.82;;;2.55;;
42840;SDS011;28491;46.898;7.660;2023-04-25T05:34:34;7.05;;;3.75;;
42840;SDS011;28491;46.898;7.660;2023-04-25T05:37:00;7.53;;;2.63;;
42840;SDS011;28491;46.898;7.660;2023-04-25T05:39:25;10.85;;;5.85;;
42840;SDS011;28491;46.898;7.660;2023-04-25T05:41:51;8.32;;;3.65;;
42840;SDS011;28491;46.898;7.660;2023-04-25T05:44:17;5.43;;;3.10;;
42840;SDS011;28491;46.898;7.660;2023-04-25T05:46:43;8.32;;;3.50;;
42840;SDS011;28491;46.898;7.660;2023-04-25T05:49:08;6.60;;;3.13;;
42840;SDS011;28491;46.898;7.660;2023-04-25T05:51:34;4.70;;;2.72;;
42840;SDS011;28491;46.898;7.660;2023-04-25T05:54:00;7.45;;;3.15;;
42840;SDS011;28491;46.898;7.660;2023-04-25T05:56:25;7.45;;;2.60;;
42840;SDS011;28491;46.898;7.660;2023-04-25T05:58:51;9.02;;;3.45;;
42840;SDS011;28491;46.898;7.660;2023-04-25T06:01:16;7.28;;;3.10;;
42840;SDS011;28491;46.898;7.660;2023-04-25T06:03:42;7.88;;;4.07;;
42840;SDS011;28491;46.898;7.660;2023-04-25T06:06:08;7.15;;;3.28;;
42840;SDS011;28491;46.898;7.660;2023-04-25T06:08:34;5.22;;;2.83;;
42840;SDS011;28491;46.898;7.660;2023-04-25T06:11:00;6.43;;;3.10;;
42840;SDS011;28491;46.898;7.660;2023-04-25T06:13:25;6.65;;;3.50;;
42840;SDS011;28491;46.898;7.660;2023-04-25T06:15:51;6.28;;;3.15;;
42840;SDS011;28491;46.898;7.660;2023-04-25T06:18:16;6.82;;;3.15;;
42840;SDS011;28491;46.898;7.660;2023-04-25T06:20:42;7.10;;;3.00;;
42840;SDS011;28491;46.898;7.660;2023-04-25T06:23:07;4.10;;;2.88;;
42840;SDS011;28491;46.898;7.660;2023-04-25T06:25:33;5.00;;;4.00;;
42840;SDS011;28491;46.898;7.660;2023-04-25T06:27:58;6.15;;;2.72;;
42840;SDS011;28491;46.898;7.660;2023-04-25T06:30:24;9.95;;;4.30;;
42840;SDS011;28491;46.898;7.660;2023-04-25T06:32:50;4.55;;;3.00;;
42840;SDS011;28491;46.898;7.660;2023-04-25T06:35:19;10.75;;;2.75;;
42840;SDS011;28491;46.898;7.660;2023-04-25T06:37:45;7.28;;;2.88;;
42840;SDS011;28491;46.898;7.660;2023-04-25T06:40:10;4.50;;;2.58;;
42840;SDS011;28491;46.898;7.660;2023-04-25T06:42:36;5.93;;;3.78;;
42840;SDS011;28491;46.898;7.660;2023-04-25T06:45:02;8.57;;;4.60;;
42840;SDS011;28491;46.898;7.660;2023-04-25T06:47:28;6.88;;;3.33;;
42840;SDS011;28491;46.898;7.660;2023-04-25T06:49:54;8.98;;;4.28;;
42840;SDS011;28491;46.898;7.660;2023-04-25T06:52:20;8.55;;;3.65;;
42840;SDS011;28491;46.898;7.660;2023-04-25T06:54:46;9.82;;;5.95;;
42840;SDS011;28491;46.898;7.660;2023-04-25T06:57:11;10.52;;;6.68;;
42840;SDS011;28491;46.898;7.660;2023-04-25T06:59:37;6.72;;;3.60;;
42840;SDS011;28491;46.898;7.660;2023-04-25T07:02:02;8.52;;;3.83;;
42840;SDS011;28491;46.898;7.660;2023-04-25T07:04:28;8.30;;;3.78;;
42840;SDS011;28491;46.898;7.660;2023-04-25T07:06:55;5.57;;;3.72;;
42840;SDS011;28491;46.898;7.660;2023-04-25T07:09:21;8.68;;;4.20;;
42840;SDS011;28491;46.898;7.660;2023-04-25T07:11:46;11.05;;;4.78;;
42840;SDS011;28491;46.898;7.660;2023-04-25T07:14:12;5.93;;;3.38;;
42840;SDS011;28491;46.898;7.660;2023-04-25T07:16:38;5.50;;;3.13;;
42840;SDS011;28491;46.898;7.660;2023-04-25T07:19:03;7.35;;;3.30;;
42840;SDS011;28491;46.898;7.660;2023-04-25T07:21:29;5.88;;;3.92;;
42840;SDS011;28491;46.898;7.660;2023-04-25T07:23:56;9.20;;;6.57;;
42840;SDS011;28491;46.898;7.660;2023-04-25T07:26:21;6.35;;;3.83;;
42840;SDS011;28491;46.898;7.660;2023-04-25T07:28:47;3.70;;;2.70;;
42840;SDS011;28491;46.898;7.660;2023-04-25T07:31:15;7.82;;;3.28;;
42840;SDS011;28491;46.898;7.660;2023-04-25T07:33:43;4.95;;;3.05;;
42840;SDS011;28491;46.898;7.660;2023-04-25T07:36:11;3.95;;;2.40;;
42840;SDS011;28491;46.898;7.660;2023-04-25T07:38:37;5.13;;;3.33;;
42840;SDS011;28491;46.898;7.660;2023-04-25T07:41:03;4.95;;;2.08;;
42840;SDS011;28491;46.898;7.660;2023-04-25T07:43:29;2.70;;;2.00;;
42840;SDS011;28491;46.898;7.660;2023-04-25T07:45:55;4.85;;;2.30;;
42840;SDS011;28491;46.898;7.660;2023-04-25T07:48:21;5.20;;;2.42;;
42840;SDS011;28491;46.898;7.660;2023-04-25T07:50:47;5.28;;;3.17;;
42840;SDS011;28491;46.898;7.660;2023-04-25T07:53:13;3.33;;;1.98;;
42840;SDS011;28491;46.898;7.660;2023-04-25T07:55:39;3.05;;;2.08;;
42840;SDS011;28491;46.898;7.660;2023-04-25T07:58:07;5.13;;;2.65;;
42840;SDS011;28491;46.898;7.660;2023-04-25T08:00:34;5.07;;;2.60;;
42840;SDS011;28491;46.898;7.660;2023-04-25T08:03:00;4.07;;;2.47;;
42840;SDS011;28491;46.898;7.660;2023-04-25T08:05:25;6.30;;;2.75;;
42840;SDS011;28491;46.898;7.660;2023-04-25T08:07:51;7.43;;;2.80;;
42840;SDS011;28491;46.898;7.660;2023-04-25T08:10:16;5.85;;;2.83;;
42840;SDS011;28491;46.898;7.660;2023-04-25T08:12:42;5.53;;;3.05;;
42840;SDS011;28491;46.898;7.660;2023-04-25T08:15:08;5.68;;;3.47;;
42840;SDS011;28491;46.898;7.660;2023-04-25T08:17:34;4.47;;;2.47;;
42840;SDS011;28491;46.898;7.660;2023-04-25T08:19:59;9.38;;;3.60;;
42840;SDS011;28491;46.898;7.660;2023-04-25T08:22:25;8.13;;;3.22;;
42840;SDS011;28491;46.898;7.660;2023-04-25T08:24:50;6.88;;;3.00;;
42840;SDS011;28491;46.898;7.660;2023-04-25T08:27:17;8.48;;;4.28;;
42840;SDS011;28491;46.898;7.660;2023-04-25T08:29:43;5.63;;;3.60;;
42840;SDS011;28491;46.898;7.660;2023-04-25T08:32:08;5.68;;;3.33;;
42840;SDS011;28491;46.898;7.660;2023-04-25T08:34:34;9.98;;;3.53;;
42840;SDS011;28491;46.898;7.660;2023-04-25T08:37:01;8.20;;;3.58;;
42840;SDS011;28491;46.898;7.660;2023-04-25T08:39:29;7.28;;;3.38;;
42840;SDS011;28491;46.898;7.660;2023-04-25T08:41:54;9.25;;;3.38;;
42840;SDS011;28491;46.898;7.660;2023-04-25T08:44:21;5.90;;;2.50;;
42840;SDS011;28491;46.898;7.660;2023-04-25T08:46:48;5.18;;;3.10;;
42840;SDS011;28491;46.898;7.660;2023-04-25T08:49:14;8.75;;;3.75;;
42840;SDS011;28491;46.898;7.660;2023-04-25T08:51:44;6.25;;;2.97;;
42840;SDS011;28491;46.898;7.660;2023-04-25T08:54:12;5.07;;;3.07;;
42840;SDS011;28491;46.898;7.660;2023-04-25T08:56:45;8.63;;;3.30;;
42840;SDS011;28491;46.898;7.660;2023-04-25T08:59:12;6.68;;;4.15;;
42840;SDS011;28491;46.898;7.660;2023-04-25T09:01:38;5.55;;;2.92;;
42840;SDS011;28491;46.898;7.660;2023-04-25T09:04:04;8.20;;;3.67;;
42840;SDS011;28491;46.898;7.660;2023-04-25T09:06:30;4.93;;;3.25;;
42840;SDS011;28491;46.898;7.660;2023-04-25T09:09:01;6.22;;;3.38;;
42840;SDS011;28491;46.898;7.660;2023-04-25T09:11:29;5.25;;;2.95;;
42840;SDS011;28491;46.898;7.660;2023-04-25T09:19:21;8.30;;;3.42;;
42840;SDS011;28491;46.898;7.660;2023-04-25T09:21:54;7.63;;;3.20;;
42840;SDS011;28491;46.898;7.660;2023-04-25T09:24:40;5.20;;;3.10;;
42840;SDS011;28491;46.898;7.660;2023-04-25T09:27:11;6.70;;;3.38;;
42840;SDS011;28491;46.898;7.660;2023-04-25T09:29:42;7.75;;;3.10;;
42840;SDS011;28491;46.898;7.660;2023-04-25T09:32:20;9.82;;;3.53;;
42840;SDS011;28491;46.898;7.660;2023-04-25T09:34:54;4.88;;;3.22;;
42840;SDS011;28491;46.898;7.660;2023-04-25T09:37:30;6.22;;;3.53;;
42840;SDS011;28491;46.898;7.660;2023-04-25T09:39:59;9.05;;;3.50;;
42840;SDS011;28491;46.898;7.660;2023-04-25T09:42:28;6.07;;;4.30;;
42840;SDS011;28491;46.898;7.660;2023-04-25T09:44:56;2.90;;;1.90;;
42840;SDS011;28491;46.898;7.660;2023-04-25T09:47:24;2.10;;;1.45;;
42840;SDS011;28491;46.898;7.660;2023-04-25T09:49:50;2.20;;;1.60;;
42840;SDS011;28491;46.898;7.660;2023-04-25T09:52:17;1.90;;;1.40;;
42840;SDS011;28491;46.898;7.660;2023-04-25T09:54:45;3.67;;;1.55;;
42840;SDS011;28491;46.898;7.660;2023-04-25T09:57:21;4.05;;;1.83;;
42840;SDS011;28491;46.898;7.660;2023-04-25T09:59:49;2.22;;;1.63;;
42840;SDS011;28491;46.898;7.660;2023-04-25T10:02:20;2.20;;;1.35;;
42840;SDS011;28491;46.898;7.660;2023-04-25T10:04:50;2.15;;;1.60;;
42840;SDS011;28491;46.898;7.660;2023-04-25T10:07:20;3.70;;;2.45;;
42840;SDS011;28491;46.898;7.660;2023-04-25T10:09:51;2.65;;;1.55;;
42840;SDS011;28491;46.898;7.660;2023-04-25T10:12:21;2.72;;;1.90;;
42840;SDS011;28491;46.898;7.660;2023-04-25T10:14:47;2.42;;;1.40;;
42840;SDS011;28491;46.898;7.660;2023-04-25T10:17:13;1.63;;;1.27;;
42840;SDS011;28491;46.898;7.660;2023-04-25T10:19:39;1.52;;;1.05;;
42840;SDS011;28491;46.898;7.660;2023-04-25T10:22:08;1.75;;;1.05;;
42840;SDS011;28491;46.898;7.660;2023-04-25T10:24:39;1.30;;;0.80;;
42840;SDS011;28491;46.898;7.660;2023-04-25T10:27:06;1.58;;;0.80;;
42840;SDS011;28491;46.898;7.660;2023-04-25T10:29:32;1.70;;;1.20;;
42840;SDS011;28491;46.898;7.660;2023-04-25T10:31:57;4.82;;;2.78;;
42840;SDS011;28491;46.898;7.660;2023-04-25T10:34:24;3.72;;;2.33;;
42840;SDS011;28491;46.898;7.660;2023-04-25T10:37:03;1.83;;;1.00;;
42840;SDS011;28491;46.898;7.660;2023-04-25T10:39:29;1.83;;;1.40;;
42840;SDS011;28491;46.898;7.660;2023-04-25T10:41:57;1.10;;;1.00;;
42840;SDS011;28491;46.898;7.660;2023-04-25T10:46:54;1.40;;;1.15;;
42840;SDS011;28491;46.898;7.660;2023-04-25T10:49:30;1.00;;;0.80;;
42840;SDS011;28491;46.898;7.660;2023-04-25T10:54:54;1.27;;;0.90;;
42840;SDS011;28491;46.898;7.660;2023-04-25T10:57:30;2.35;;;1.13;;
42840;SDS011;28491;46.898;7.660;2023-04-25T11:00:00;1.13;;;0.80;;
42840;SDS011;28491;46.898;7.660;2023-04-25T11:02:55;1.17;;;0.80;;
42840;SDS011;28491;46.898;7.660;2023-04-25T11:05:31;0.60;;;0.47;;
42840;SDS011;28491;46.898;7.660;2023-04-25T11:07:58;1.10;;;0.80;;
42840;SDS011;28491;46.898;7.660;2023-04-25T11:10:25;1.00;;;0.52;;
42840;SDS011;28491;46.898;7.660;2023-04-25T11:12:55;0.90;;;0.82;;
42840;SDS011;28491;46.898;7.660;2023-04-25T11:15:21;1.08;;;1.00;;
42840;SDS011;28491;46.898;7.660;2023-04-25T11:17:47;1.08;;;0.93;;
42840;SDS011;28491;46.898;7.660;2023-04-25T11:20:13;0.93;;;0.70;;
42840;SDS011;28491;46.898;7.660;2023-04-25T11:22:40;0.85;;;0.63;;
42840;SDS011;28491;46.898;7.660;2023-04-25T11:25:09;2.13;;;0.90;;
42840;SDS011;28491;46.898;7.660;2023-04-25T11:27:52;1.35;;;0.77;;
42840;SDS011;28491;46.898;7.660;2023-04-25T11:30:18;1.08;;;0.75;;
42840;SDS011;28491;46.898;7.660;2023-04-25T11:32:45;1.27;;;0.77;;
42840;SDS011;28491;46.898;7.660;2023-04-25T11:35:11;1.00;;;0.65;;
42840;SDS011;28491;46.898;7.660;2023-04-25T11:37:41;0.90;;;0.70;;
42840;SDS011;28491;46.898;7.660;2023-04-25T11:40:08;1.70;;;0.60;;
42840;SDS011;28491;46.898;7.660;2023-04-25T11:42:38;1.40;;;0.98;;
42840;SDS011;28491;46.898;7.660;2023-04-25T11:45:04;0.90;;;0.70;;
42840;SDS011;28491;46.898;7.660;2023-04-25T11:47:31;1.95;;;0.88;;
42840;SDS011;28491;46.898;7.660;2023-04-25T11:49:58;1.25;;;1.00;;
42840;SDS011;28491;46.898;7.660;2023-04-25T11:52:34;0.60;;;0.60;;
42840;SDS011;28491;46.898;7.660;2023-04-25T11:55:05;1.30;;;1.10;;
42840;SDS011;28491;46.898;7.660;2023-04-25T11:57:35;1.00;;;0.90;;
42840;SDS011;28491;46.898;7.660;2023-04-25T12:00:13;1.52;;;1.00;;
42840;SDS011;28491;46.898;7.660;2023-04-25T12:02:43;0.98;;;0.73;;
42840;SDS011;28491;46.898;7.660;2023-04-25T12:05:10;2.30;;;1.05;;
42840;SDS011;28491;46.898;7.660;2023-04-25T12:07:37;1.15;;;0.90;;
42840;SDS011;28491;46.898;7.660;2023-04-25T12:10:10;2.58;;;1.25;;
42840;SDS011;28491;46.898;7.660;2023-04-25T12:12:37;2.10;;;1.60;;
42840;SDS011;28491;46.898;7.660;2023-04-25T12:15:09;2.28;;;1.45;;
42840;SDS011;28491;46.898;7.660;2023-04-25T12:17:36;2.13;;;1.27;;
42840;SDS011;28491;46.898;7.660;2023-04-25T12:20:06;3.42;;;1.25;;
42840;SDS011;28491;46.898;7.660;2023-04-25T12:22:33;2.90;;;1.38;;
42840;SDS011;28491;46.898;7.660;2023-04-25T12:24:59;5.50;;;1.90;;
42840;SDS011;28491;46.898;7.660;2023-04-25T12:27:25;2.03;;;1.23;;
42840;SDS011;28491;46.898;7.660;2023-04-25T12:29:52;2.53;;;1.60;;
42840;SDS011;28491;46.898;7.660;2023-04-25T12:32:19;3.65;;;2.28;;
42840;SDS011;28491;46.898;7.660;2023-04-25T12:34:45;6.18;;;1.75;;
42840;SDS011;28491;46.898;7.660;2023-04-25T12:37:11;3.55;;;1.45;;
42840;SDS011;28491;46.898;7.660;2023-04-25T12:39:36;3.30;;;1.45;;
42840;SDS011;28491;46.898;7.660;2023-04-25T12:42:02;3.72;;;2.72;;
42840;SDS011;28491;46.898;7.660;2023-04-25T12:44:28;4.72;;;1.25;;
42840;SDS011;28491;46.898;7.660;2023-04-25T12:46:53;2.47;;;1.35;;
42840;SDS011;28491;46.898;7.660;2023-04-25T12:49:19;2.03;;;1.27;;
42840;SDS011;28491;46.898;7.660;2023-04-25T12:51:45;3.28;;;1.60;;
42840;SDS011;28491;46.898;7.660;2023-04-25T12:54:11;5.93;;;2.08;;
42840;SDS011;28491;46.898;7.660;2023-04-25T12:56:37;7.32;;;5.38;;
42840;SDS011;28491;46.898;7.660;2023-04-25T12:59:02;2.05;;;1.50;;
42840;SDS011;28491;46.898;7.660;2023-04-25T13:01:28;3.90;;;1.73;;
42840;SDS011;28491;46.898;7.660;2023-04-25T13:03:54;1.40;;;1.10;;
42840;SDS011;28491;46.898;7.660;2023-04-25T13:06:21;1.75;;;0.95;;
42840;SDS011;28491;46.898;7.660;2023-04-25T13:08:47;1.50;;;0.90;;
42840;SDS011;28491;46.898;7.660;2023-04-25T13:11:13;1.73;;;1.10;;
42840;SDS011;28491;46.898;7.660;2023-04-25T13:13:39;1.45;;;0.88;;
42840;SDS011;28491;46.898;7.660;2023-04-25T13:16:06;1.55;;;1.10;;
42840;SDS011;28491;46.898;7.660;2023-04-25T13:18:32;2.28;;;0.90;;
42840;SDS011;28491;46.898;7.660;2023-04-25T13:20:58;3.75;;;1.98;;
42840;SDS011;28491;46.898;7.660;2023-04-25T13:23:27;2.05;;;1.40;;
42840;SDS011;28491;46.898;7.660;2023-04-25T13:25:54;1.00;;;0.98;;
42840;SDS011;28491;46.898;7.660;2023-04-25T13:28:20;1.35;;;1.00;;
42840;SDS011;28491;46.898;7.660;2023-04-25T13:30:46;1.23;;;0.93;;
42840;SDS011;28491;46.898;7.660;2023-04-25T13:33:13;3.88;;;1.10;;
42840;SDS011;28491;46.898;7.660;2023-04-25T13:35:39;1.35;;;1.00;;
42840;SDS011;28491;46.898;7.660;2023-04-25T13:38:05;1.27;;;1.05;;
42840;SDS011;28491;46.898;7.660;2023-04-25T13:40:30;2.38;;;1.27;;
42840;SDS011;28491;46.898;7.660;2023-04-25T13:42:57;1.73;;;1.40;;
42840;SDS011;28491;46.898;7.660;2023-04-25T13:45:23;1.38;;;1.10;;
42840;SDS011;28491;46.898;7.660;2023-04-25T13:47:49;4.20;;;1.42;;
42840;SDS011;28491;46.898;7.660;2023-04-25T13:50:14;1.75;;;1.20;;
42840;SDS011;28491;46.898;7.660;2023-04-25T13:52:41;2.03;;;1.20;;
42840;SDS011;28491;46.898;7.660;2023-04-25T13:55:07;2.30;;;1.52;;
42840;SDS011;28491;46.898;7.660;2023-04-25T13:57:33;1.45;;;1.10;;
42840;SDS011;28491;46.898;7.660;2023-04-25T14:00:00;3.50;;;1.40;;
42840;SDS011;28491;46.898;7.660;2023-04-25T14:02:30;2.28;;;1.50;;
42840;SDS011;28491;46.898;7.660;2023-04-25T14:04:56;1.77;;;1.40;;
42840;SDS011;28491;46.898;7.660;2023-04-25T14:07:21;2.45;;;1.55;;
42840;SDS011;28491;46.898;7.660;2023-04-25T14:09:47;1.63;;;1.15;;
42840;SDS011;28491;46.898;7.660;2023-04-25T14:12:13;3.60;;;1.58;;
42840;SDS011;28491;46.898;7.660;2023-04-25T14:14:38;3.85;;;1.30;;
42840;SDS011;28491;46.898;7.660;2023-04-25T14:17:04;1.67;;;1.38;;
42840;SDS011;28491;46.898;7.660;2023-04-25T14:19:30;2.35;;;1.45;;
42840;SDS011;28491;46.898;7.660;2023-04-25T14:21:55;2.08;;;1.55;;
42840;SDS011;28491;46.898;7.660;2023-04-25T14:24:21;1.85;;;1.40;;
42840;SDS011;28491;46.898;7.660;2023-04-25T14:26:46;1.95;;;1.40;;
42840;SDS011;28491;46.898;7.660;2023-04-25T14:29:12;2.10;;;1.40;;
42840;SDS011;28491;46.898;7.660;2023-04-25T14:31:38;2.08;;;1.70;;
42840;SDS011;28491;46.898;7.660;2023-04-25T14:34:05;2.40;;;1.92;;
42840;SDS011;28491;46.898;7.660;2023-04-25T14:36:30;3.25;;;1.48;;
42840;SDS011;28491;46.898;7.660;2023-04-25T14:38:57;3.03;;;2.25;;
42840;SDS011;28491;46.898;7.660;2023-04-25T14:41:23;3.58;;;1.90;;
42840;SDS011;28491;46.898;7.660;2023-04-25T14:43:49;2.35;;;1.65;;
42840;SDS011;28491;46.898;7.660;2023-04-25T14:46:15;2.15;;;1.80;;
42840;SDS011;28491;46.898;7.660;2023-04-25T14:48:41;3.17;;;2.03;;
42840;SDS011;28491;46.898;7.660;2023-04-25T14:51:07;2.35;;;1.80;;
42840;SDS011;28491;46.898;7.660;2023-04-25T14:53:33;3.80;;;1.92;;
42840;SDS011;28491;46.898;7.660;2023-04-25T14:55:58;6.40;;;2.92;;
42840;SDS011;28491;46.898;7.660;2023-04-25T14:58:24;5.35;;;2.20;;